createdAt,value
2023-01-09T00:00:24.020Z,96609.72
2023-01-09T00:02:54.096Z,96598.19
2023-01-09T00:05:23.967Z,96588.09
2023-01-09T00:07:54.210Z,96584.00
2023-01-09T00:10:24.260Z,96571.69
2023-01-09T00:12:53.727Z,96573.47
2023-01-09T00:15:22.900Z,96579.63
2023-01-09T00:17:52.439Z,96573.09
2023-01-09T00:20:21.793Z,96571.41
2023-01-09T00:22:53.718Z,96571.84
2023-01-09T00:25:24.918Z,96560.19
2023-01-09T00:27:55.558Z,96570.56
2023-01-09T00:30:27.101Z,96560.78
2023-01-09T00:32:57.339Z,96564.13
2023-01-09T00:35:29.083Z,96566.38
2023-01-09T00:37:59.272Z,96568.81
2023-01-09T00:40:30.373Z,96569.09
2023-01-09T00:43:00.594Z,96571.94
2023-01-09T00:45:31.311Z,96558.75
2023-01-09T00:48:10.849Z,96571.75
2023-01-09T00:50:44.769Z,96586.34
2023-01-09T00:53:19.815Z,96594.56
2023-01-09T00:55:51.499Z,96592.03
2023-01-09T00:58:23.056Z,96601.94
2023-01-09T01:00:53.693Z,96602.56
2023-01-09T01:03:22.735Z,96589.03
2023-01-09T01:06:10.050Z,96588.34
2023-01-09T01:08:44.975Z,96579.84
2023-01-09T01:11:14.709Z,96569.94
2023-01-09T01:13:45.828Z,96567.97
2023-01-09T01:16:16.678Z,96590.19
2023-01-09T01:18:49.831Z,96573.19
2023-01-09T01:21:19.803Z,96585.44
2023-01-09T01:23:50.107Z,96574.00
2023-01-09T01:26:19.261Z,96573.19
2023-01-09T01:28:48.031Z,96581.59
2023-01-09T01:31:19.247Z,96582.22
2023-01-09T01:33:48.158Z,96570.53
2023-01-09T01:36:18.094Z,96573.53
2023-01-09T01:38:48.887Z,96565.31
2023-01-09T01:41:29.800Z,96579.50
2023-01-09T01:44:02.533Z,96577.66
2023-01-09T01:46:33.310Z,96564.75
2023-01-09T01:49:15.347Z,96562.00
2023-01-09T01:51:50.497Z,96556.41
2023-01-09T01:54:25.783Z,96563.38
2023-01-09T01:57:00.421Z,96560.66
2023-01-09T01:59:50.615Z,96556.50
2023-01-09T02:02:28.500Z,96564.75
2023-01-09T02:04:59.779Z,96574.53
2023-01-09T02:07:33.746Z,96565.50
2023-01-09T02:10:03.819Z,96574.53
2023-01-09T02:12:34.428Z,96585.72
2023-01-09T02:15:11.590Z,96595.63
2023-01-09T02:18:10.343Z,96583.47
2023-01-09T02:20:50.025Z,96576.41
2023-01-09T02:23:21.543Z,96576.19
2023-01-09T02:26:24.534Z,96575.06
2023-01-09T02:29:05.383Z,96574.47
2023-01-09T02:32:01.893Z,96564.03
2023-01-09T02:35:07.159Z,96583.47
2023-01-09T02:38:18.389Z,96586.47
2023-01-09T02:41:42.375Z,96571.06
2023-01-09T02:44:28.893Z,96579.25
2023-01-09T02:47:30.220Z,96559.50
2023-01-09T02:50:10.170Z,96547.88
2023-01-09T02:53:03.311Z,96545.41
2023-01-09T02:55:36.298Z,96554.84
2023-01-09T02:58:35.263Z,96578.59
2023-01-09T03:01:16.610Z,96595.78
2023-01-09T03:04:21.286Z,96583.88
2023-01-09T03:07:38.276Z,96585.69
2023-01-09T03:10:35.688Z,96587.75
2023-01-09T03:13:04.587Z,96588.56
2023-01-09T03:15:38.376Z,96592.47
2023-01-09T03:18:11.818Z,96611.09
2023-01-09T03:20:41.795Z,96613.16
2023-01-09T03:23:10.869Z,96609.16
2023-01-09T03:25:39.949Z,96616.50
2023-01-09T03:28:26.095Z,96633.50
2023-01-09T03:30:56.656Z,96620.72
2023-01-09T03:33:25.898Z,96616.41
2023-01-09T03:35:56.233Z,96610.53
2023-01-09T03:38:25.317Z,96613.66
2023-01-09T03:40:56.710Z,96623.81
2023-01-09T03:43:29.882Z,96627.59
2023-01-09T03:46:00.188Z,96640.22
2023-01-09T03:48:31.467Z,96642.06
2023-01-09T03:51:00.553Z,96646.28
2023-01-09T03:53:31.350Z,96643.72
2023-01-09T03:56:01.113Z,96667.97
2023-01-09T03:58:37.653Z,96677.47
2023-01-09T04:01:14.489Z,96675.09
2023-01-09T04:03:45.509Z,96680.97
2023-01-09T04:06:17.523Z,96692.25
2023-01-09T04:08:48.373Z,96697.53
2023-01-09T04:11:21.582Z,96722.03
2023-01-09T04:13:53.860Z,96757.13
2023-01-09T04:16:24.991Z,96795.22
2023-01-09T04:18:54.238Z,96806.59
2023-01-09T04:21:23.200Z,96801.63
2023-01-09T04:23:51.773Z,96811.19
2023-01-09T04:26:20.418Z,96821.38
2023-01-09T04:28:49.551Z,96830.19
2023-01-09T04:31:20.168Z,96845.69
2023-01-09T04:33:50.976Z,96853.25
2023-01-09T04:36:21.311Z,96845.22
2023-01-09T04:38:53.405Z,96854.97
2023-01-09T04:41:41.638Z,96846.66
2023-01-09T04:44:10.592Z,96846.78
2023-01-09T04:46:40.529Z,96853.81
2023-01-09T04:49:12.545Z,96860.41
2023-01-09T04:51:43.089Z,96858.47
2023-01-09T04:54:14.199Z,96859.81
2023-01-09T04:56:44.274Z,96849.88
2023-01-09T04:59:14.871Z,96852.50
2023-01-09T05:01:49.198Z,96859.66
2023-01-09T05:04:21.988Z,96862.41
2023-01-09T05:06:55.992Z,96855.25
2023-01-09T05:09:30.019Z,96848.78
2023-01-09T05:12:01.593Z,96841.69
2023-01-09T05:14:31.527Z,96847.38
2023-01-09T05:17:05.483Z,96843.53
2023-01-09T05:19:35.568Z,96878.72
2023-01-09T05:22:04.251Z,96874.22
2023-01-09T05:24:32.435Z,96885.50
2023-01-09T05:27:03.121Z,96890.22
2023-01-09T05:29:31.950Z,96893.88
2023-01-09T05:32:02.422Z,96898.16
2023-01-09T05:34:32.854Z,96902.53
2023-01-09T05:37:03.596Z,96899.53
2023-01-09T05:39:38.892Z,96904.63
2023-01-09T05:42:13.894Z,96917.06
2023-01-09T05:44:46.056Z,96921.44
2023-01-09T05:47:18.463Z,96935.44
2023-01-09T05:49:50.168Z,96939.34
2023-01-09T05:52:22.373Z,96951.59
2023-01-09T05:54:54.254Z,96953.06
2023-01-09T05:57:26.651Z,96960.25
2023-01-09T05:59:59.290Z,96967.22
2023-01-09T06:02:28.732Z,96968.97
2023-01-09T06:04:58.178Z,96962.81
2023-01-09T06:07:29.178Z,96970.06
2023-01-09T06:10:05.053Z,96968.00
2023-01-09T06:12:35.734Z,96968.94
2023-01-09T06:15:08.002Z,96977.16
2023-01-09T06:17:40.511Z,96985.88
2023-01-09T06:20:12.084Z,96980.34
2023-01-09T06:22:42.544Z,96980.06
2023-01-09T06:25:12.491Z,96978.00
2023-01-09T06:27:45.889Z,96981.81
2023-01-09T06:30:17.515Z,96986.25
2023-01-09T06:32:52.525Z,96974.78
2023-01-09T06:35:30.132Z,96982.81
2023-01-09T06:38:04.090Z,96990.25
2023-01-09T06:40:38.435Z,97003.69
2023-01-09T06:43:11.294Z,96995.47
2023-01-09T06:45:47.994Z,97010.91
2023-01-09T06:48:25.611Z,96997.56
2023-01-09T06:50:56.811Z,97011.38
2023-01-09T06:53:29.183Z,97008.16
2023-01-09T06:56:02.201Z,97003.00
2023-01-09T06:58:35.233Z,96995.72
2023-01-09T07:01:06.211Z,96997.88
2023-01-09T07:03:38.613Z,97000.72
2023-01-09T07:06:11.961Z,96998.94
2023-01-09T07:08:43.536Z,96987.91
2023-01-09T07:11:14.669Z,96997.78
2023-01-09T07:17:15.871Z,96997.56
2023-01-09T07:19:54.362Z,97004.31
2023-01-09T07:22:25.624Z,96999.66
2023-01-09T07:24:58.693Z,97011.19
2023-01-09T07:27:33.436Z,97017.66
2023-01-09T07:30:04.812Z,97020.88
2023-01-09T07:32:39.618Z,97022.34
2023-01-09T07:35:26.149Z,97032.59
2023-01-09T07:38:07.399Z,97038.38
2023-01-09T07:40:38.798Z,97045.06
2023-01-09T07:43:21.541Z,97035.91
2023-01-09T07:46:04.951Z,97045.13
2023-01-09T07:48:36.582Z,97046.94
2023-01-09T07:51:23.043Z,97037.84
2023-01-09T07:53:53.400Z,97054.22
2023-01-09T07:56:26.244Z,97050.50
2023-01-09T07:58:56.821Z,97038.16
2023-01-09T08:01:26.329Z,97055.59
2023-01-09T08:03:57.761Z,97066.31
2023-01-09T08:06:29.816Z,97067.94
2023-01-09T08:09:06.606Z,97064.88
2023-01-09T08:11:37.027Z,97070.16
2023-01-09T08:14:08.505Z,97071.88
2023-01-09T08:16:41.174Z,97066.31
2023-01-09T08:19:15.521Z,97084.00
2023-01-09T08:21:44.984Z,97089.72
2023-01-09T08:24:12.281Z,97073.38
2023-01-09T08:26:39.587Z,97071.78
2023-01-09T08:29:06.752Z,97064.47
2023-01-09T08:31:34.120Z,97064.34
2023-01-09T08:34:01.158Z,97053.63
2023-01-09T08:36:28.562Z,97061.09
2023-01-09T08:38:56.283Z,97048.16
2023-01-09T08:41:42.146Z,97047.16
2023-01-09T08:44:28.041Z,97063.56
2023-01-09T08:47:07.339Z,97046.81
2023-01-09T08:49:37.515Z,97068.31
2023-01-09T08:52:05.887Z,97061.50
2023-01-09T08:54:33.882Z,97053.38
2023-01-09T08:57:00.787Z,97058.38
2023-01-09T08:59:27.729Z,97041.69
2023-01-09T09:01:55.230Z,97043.09
2023-01-09T09:04:22.603Z,97036.44
2023-01-09T09:06:49.642Z,97037.91
2023-01-09T09:09:17.228Z,97031.00
2023-01-09T09:11:44.592Z,97033.06
2023-01-09T09:14:30.529Z,97019.72
2023-01-09T09:16:57.894Z,97034.66
2023-01-09T09:19:25.223Z,97024.78
2023-01-09T09:21:52.250Z,97033.09
2023-01-09T09:24:19.165Z,97027.66
2023-01-09T09:26:46.469Z,97025.28
2023-01-09T09:29:13.845Z,97027.41
2023-01-09T09:31:40.800Z,97017.66
2023-01-09T09:34:08.077Z,97027.38
2023-01-09T09:36:35.455Z,97022.66
2023-01-09T09:39:02.962Z,97031.28
2023-01-09T09:42:14.175Z,97037.16
2023-01-09T09:45:40.771Z,97038.03
2023-01-09T09:48:39.236Z,97046.06
2023-01-09T09:51:06.509Z,97050.63
2023-01-09T09:53:59.915Z,97046.22
2023-01-09T09:56:30.653Z,97055.16
2023-01-09T09:59:10.271Z,97053.25
2023-01-09T10:01:43.348Z,97048.56
2023-01-09T10:04:14.774Z,97041.47
2023-01-09T10:06:45.054Z,97046.28
2023-01-09T10:09:49.043Z,97044.03
2023-01-09T10:12:30.519Z,97044.28
2023-01-09T10:15:00.788Z,97037.72
2023-01-09T10:18:05.956Z,97028.88
2023-01-09T10:20:55.512Z,97034.06
2023-01-09T10:23:49.643Z,97029.53
2023-01-09T10:26:38.852Z,97030.94
2023-01-09T10:29:29.216Z,97026.28
2023-01-09T10:32:25.586Z,97041.22
2023-01-09T10:35:01.894Z,97052.19
2023-01-09T10:37:34.552Z,97040.78
2023-01-09T10:40:24.071Z,97039.00
2023-01-09T10:43:35.054Z,97022.34
2023-01-09T10:46:10.259Z,97025.00
2023-01-09T10:48:45.841Z,97021.72
2023-01-09T10:51:22.573Z,97019.47
2023-01-09T10:53:55.150Z,97008.59
2023-01-09T10:56:34.079Z,97013.56
2023-01-09T10:59:01.460Z,97005.69
2023-01-09T11:01:34.892Z,96989.78
2023-01-09T11:04:02.349Z,96993.19
2023-01-09T11:06:47.697Z,96984.34
2023-01-09T11:09:16.802Z,96989.22
2023-01-09T11:11:46.824Z,96985.06
2023-01-09T11:14:31.567Z,96983.09
2023-01-09T11:17:04.063Z,96979.28
2023-01-09T11:19:33.410Z,96988.38
2023-01-09T11:22:09.228Z,96997.94
2023-01-09T11:24:36.583Z,96993.84
2023-01-09T11:27:12.705Z,96993.47
2023-01-09T11:29:41.327Z,96996.97
2023-01-09T11:32:23.662Z,96995.28
2023-01-09T11:34:50.929Z,96999.50
2023-01-09T11:37:30.469Z,96992.44
2023-01-09T11:40:00.990Z,96989.41
2023-01-09T11:42:49.778Z,96996.38
2023-01-09T11:45:32.479Z,96994.25
2023-01-09T11:47:59.862Z,96991.00
2023-01-09T11:50:29.726Z,96982.72
2023-01-09T11:53:17.163Z,96992.66
2023-01-09T11:55:46.524Z,97001.53
2023-01-09T11:58:22.982Z,96996.63
2023-01-09T12:01:08.202Z,96997.91
2023-01-09T12:04:05.611Z,96986.94
2023-01-09T12:06:44.324Z,96987.75
2023-01-09T12:09:50.115Z,96981.44
2023-01-09T12:12:40.067Z,96998.75
2023-01-09T12:16:00.846Z,96979.06
2023-01-09T12:19:26.583Z,96981.28
2023-01-09T12:22:25.535Z,96994.41
2023-01-09T12:25:36.237Z,96982.06
2023-01-09T12:28:22.220Z,96983.34
2023-01-09T12:31:13.820Z,96983.69
2023-01-09T12:34:06.429Z,96980.25
2023-01-09T12:37:04.854Z,96978.22
2023-01-09T12:40:20.762Z,96973.34
2023-01-09T12:43:33.925Z,96979.91
2023-01-09T12:46:17.697Z,96992.84
2023-01-09T12:49:30.917Z,97023.25
2023-01-09T12:52:31.400Z,97041.88
2023-01-09T12:55:22.066Z,97053.16
2023-01-09T12:57:59.524Z,97062.28
2023-01-09T13:00:43.449Z,97090.75
2023-01-09T13:03:27.132Z,97105.78
2023-01-09T13:05:57.307Z,97119.78
2023-01-09T13:08:49.833Z,97127.63
2023-01-09T13:11:22.254Z,97192.16
2023-01-09T13:14:09.843Z,97192.16
2023-01-09T13:16:43.802Z,97192.16
2023-01-09T13:19:29.121Z,97192.16
2023-01-09T13:21:58.611Z,97192.16
2023-01-09T13:24:36.399Z,97192.16
2023-01-09T13:27:10.801Z,97192.16
2023-01-09T13:29:45.776Z,97192.16
2023-01-09T13:32:18.976Z,97192.16
2023-01-09T13:34:50.481Z,97192.16
2023-01-09T13:37:33.106Z,97192.16
2023-01-09T13:40:20.380Z,97192.16
2023-01-09T13:43:10.073Z,97192.16
2023-01-09T13:45:39.903Z,97192.16
2023-01-09T13:48:10.956Z,97192.16
2023-01-09T13:50:43.394Z,97192.16
2023-01-09T13:53:20.157Z,97192.16
2023-01-09T13:55:59.310Z,97192.16
2023-01-09T13:58:29.212Z,97035.84
2023-01-09T14:01:00.531Z,97042.97
2023-01-09T14:03:37.285Z,97049.06
2023-01-09T14:06:16.209Z,97065.09
2023-01-09T14:08:44.758Z,97082.69
2023-01-09T14:11:19.726Z,97094.50
2023-01-09T14:13:52.820Z,97097.50
2023-01-09T14:16:24.499Z,97100.41
2023-01-09T14:19:07.162Z,97104.63
2023-01-09T14:21:50.817Z,97110.38
2023-01-09T14:24:30.590Z,97108.97
2023-01-09T14:27:00.349Z,97130.88
2023-01-09T14:29:36.307Z,97131.28
2023-01-09T14:32:29.986Z,97141.50
2023-01-09T14:35:24.251Z,97142.81
2023-01-09T14:38:04.349Z,97146.81
2023-01-09T14:40:32.466Z,97133.94
2023-01-09T14:43:25.422Z,97137.19
2023-01-09T14:45:58.894Z,97161.31
2023-01-09T14:48:26.979Z,97170.44
2023-01-09T14:50:57.652Z,97165.81
2023-01-09T14:53:34.621Z,97161.63
2023-01-09T14:56:06.535Z,97177.88
2023-01-09T14:58:35.524Z,97186.09
2023-01-09T15:01:25.472Z,97193.59
2023-01-09T15:04:02.094Z,97204.34
2023-01-09T15:06:43.028Z,97187.91
2023-01-09T15:09:26.118Z,97187.06
2023-01-09T15:12:03.726Z,97188.25
2023-01-09T15:14:41.341Z,97201.81
2023-01-09T15:17:25.250Z,97212.16
2023-01-09T15:19:52.971Z,97214.19
2023-01-09T15:22:37.471Z,97211.97
2023-01-09T15:25:39.589Z,97219.75
2023-01-09T15:28:41.320Z,97217.81
2023-01-09T15:31:15.992Z,97218.66
2023-01-09T15:33:45.259Z,97219.47
2023-01-09T15:36:30.280Z,97211.09
2023-01-09T15:38:57.877Z,97205.81
2023-01-09T15:41:49.020Z,97220.78
2023-01-09T15:44:28.252Z,97238.75
2023-01-09T15:47:00.226Z,97250.50
2023-01-09T15:49:27.500Z,97265.66
2023-01-09T15:51:55.134Z,97288.44
2023-01-09T15:54:33.017Z,97308.41
2023-01-09T15:57:24.970Z,97305.84
2023-01-09T15:59:57.317Z,97306.88
2023-01-09T16:02:44.429Z,97319.00
2023-01-09T16:05:17.295Z,97324.25
2023-01-09T16:07:50.349Z,97321.56
2023-01-09T16:10:34.094Z,97338.84
2023-01-09T16:13:02.655Z,97331.78
2023-01-09T16:15:34.827Z,97331.78
2023-01-09T16:18:13.917Z,97362.56
2023-01-09T16:20:41.508Z,97373.50
2023-01-09T16:23:28.156Z,97342.78
2023-01-09T16:26:20.943Z,97336.97
2023-01-09T16:28:48.306Z,97334.06
2023-01-09T16:31:29.356Z,97329.84
2023-01-09T16:34:06.404Z,97322.09
2023-01-09T16:36:36.920Z,97316.78
2023-01-09T16:39:04.381Z,97326.28
2023-01-09T16:41:50.213Z,97330.66
2023-01-09T16:44:19.170Z,97330.25
2023-01-09T16:46:46.686Z,97337.72
2023-01-09T16:49:18.832Z,97333.97
2023-01-09T16:51:46.940Z,97336.13
2023-01-09T16:54:14.409Z,97344.78
2023-01-09T16:56:44.684Z,97344.28
2023-01-09T16:59:20.617Z,97355.53
2023-01-09T17:01:52.125Z,97369.09
2023-01-09T17:04:23.770Z,97374.91
2023-01-09T17:06:51.463Z,97371.31
2023-01-09T17:09:23.129Z,97374.16
2023-01-09T17:11:51.504Z,97351.72
2023-01-09T17:14:19.195Z,97367.16
2023-01-09T17:16:46.723Z,97362.06
2023-01-09T17:19:19.748Z,97361.22
2023-01-09T17:21:47.835Z,97382.38
2023-01-09T17:24:33.947Z,97382.75
2023-01-09T17:27:20.364Z,97388.97
2023-01-09T17:29:48.063Z,97379.78
2023-01-09T17:32:17.701Z,97372.44
2023-01-09T17:34:44.866Z,97377.84
2023-01-09T17:37:17.085Z,97385.28
2023-01-09T17:39:45.289Z,97376.81
2023-01-09T17:42:12.392Z,97378.91
2023-01-09T17:44:39.751Z,97384.06
2023-01-09T17:47:15.623Z,97380.22
2023-01-09T17:49:42.864Z,97391.53
2023-01-09T17:52:10.380Z,97388.22
2023-01-09T17:54:37.352Z,97394.25
2023-01-09T17:57:04.644Z,97397.78
2023-01-09T17:59:32.194Z,97403.25
2023-01-09T18:01:59.812Z,97400.63
2023-01-09T18:04:27.311Z,97394.53
2023-01-09T18:06:54.719Z,97397.31
2023-01-09T18:09:22.260Z,97397.69
2023-01-09T18:11:49.192Z,97406.25
2023-01-09T18:14:17.524Z,97407.03
2023-01-09T18:16:45.359Z,97421.16
2023-01-09T18:19:12.446Z,97418.66
2023-01-09T18:21:39.428Z,97431.28
2023-01-09T18:24:07.065Z,97435.69
2023-01-09T18:26:34.435Z,97439.00
2023-01-09T18:29:01.855Z,97444.53
2023-01-09T18:31:30.339Z,97449.31
2023-01-09T18:34:02.226Z,97460.84
2023-01-09T18:36:30.147Z,97464.22
2023-01-09T18:39:00.202Z,97473.16
2023-01-09T18:41:28.342Z,97465.16
2023-01-09T18:43:59.064Z,97482.66
2023-01-09T18:46:30.628Z,97491.06
2023-01-09T18:49:04.423Z,97503.66
2023-01-09T18:51:33.402Z,97517.91
2023-01-09T18:54:00.781Z,97512.38
2023-01-09T18:56:27.933Z,97530.34
2023-01-09T18:58:59.543Z,97549.78
2023-01-09T19:01:28.306Z,97458.53
2023-01-09T19:04:00.040Z,97464.94
2023-01-09T19:06:28.970Z,97464.94
2023-01-09T19:08:58.232Z,97464.94
2023-01-09T19:11:25.886Z,97464.94
2023-01-09T19:13:53.341Z,97464.94
2023-01-09T19:16:20.836Z,97499.50
2023-01-09T19:18:48.364Z,97505.44
2023-01-09T19:21:19.546Z,97510.38
2023-01-09T19:23:47.773Z,97510.88
2023-01-09T19:26:26.627Z,97512.31
2023-01-09T19:28:57.376Z,97528.00
2023-01-09T19:31:26.613Z,97536.31
2023-01-09T19:33:54.270Z,97540.78
2023-01-09T19:36:22.355Z,97541.50
2023-01-09T19:38:50.068Z,97537.28
2023-01-09T19:41:20.705Z,97544.31
2023-01-09T19:43:48.623Z,97534.44
2023-01-09T19:46:19.596Z,97542.84
2023-01-09T19:48:47.542Z,97557.88
2023-01-09T19:51:17.407Z,97606.91
2023-01-09T19:53:45.208Z,97638.81
2023-01-09T19:56:24.201Z,97656.59
2023-01-09T19:58:54.786Z,97671.84
2023-01-09T20:01:28.756Z,97674.44
2023-01-09T20:03:57.158Z,97687.59
2023-01-09T20:06:26.430Z,97700.72
2023-01-09T20:08:59.650Z,97700.69
2023-01-09T20:11:30.118Z,97711.25
2023-01-09T20:13:57.940Z,97710.81
2023-01-09T20:16:28.823Z,97709.00
2023-01-09T20:18:58.212Z,97696.66
2023-01-09T20:21:27.831Z,97694.69
2023-01-09T20:23:58.185Z,97698.38
2023-01-09T20:26:26.157Z,97708.13
2023-01-09T20:28:53.959Z,97714.38
2023-01-09T20:31:23.536Z,97719.13
2023-01-09T20:33:51.196Z,97728.94
2023-01-09T20:36:21.563Z,97730.28
2023-01-09T20:38:48.661Z,97737.09
2023-01-09T20:41:23.239Z,97743.06
2023-01-09T20:43:58.299Z,97747.66
2023-01-09T20:46:29.713Z,97743.72
2023-01-09T20:49:06.386Z,97747.19
2023-01-09T20:51:41.853Z,97744.63
2023-01-09T20:54:09.433Z,97757.09
2023-01-09T20:56:36.876Z,97752.16
2023-01-09T20:59:06.290Z,97753.06
2023-01-09T21:01:34.861Z,97764.06
2023-01-09T21:04:03.094Z,97764.50
2023-01-09T21:06:30.661Z,97768.50
2023-01-09T21:08:57.678Z,97761.22
2023-01-09T21:11:24.665Z,97769.31
2023-01-09T21:13:52.120Z,97764.41
2023-01-09T21:16:24.386Z,97768.44
2023-01-09T21:18:52.583Z,97767.19
2023-01-09T21:21:23.979Z,97762.53
2023-01-09T21:23:54.318Z,97769.63
2023-01-09T21:26:24.837Z,97768.53
2023-01-09T21:28:55.035Z,97767.97
2023-01-09T21:31:33.638Z,97768.63
2023-01-09T21:34:06.987Z,97770.72
2023-01-09T21:36:35.517Z,97766.38
2023-01-09T21:39:07.654Z,97768.53
2023-01-09T21:41:53.628Z,97784.19
2023-01-09T21:44:38.942Z,97784.38
2023-01-09T21:47:06.327Z,97789.31
2023-01-09T21:49:35.287Z,97777.56
2023-01-09T21:52:06.023Z,97789.59
2023-01-09T21:54:34.098Z,97797.56
2023-01-09T21:57:02.190Z,97802.59
2023-01-09T21:59:29.314Z,97813.75
2023-01-09T22:01:56.782Z,97796.34
2023-01-09T22:04:28.225Z,97809.00
2023-01-09T22:06:56.051Z,97816.22
2023-01-09T22:09:23.325Z,97818.38
2023-01-09T22:11:50.384Z,97821.31
2023-01-09T22:14:19.284Z,97820.50
2023-01-09T22:16:47.858Z,97828.63
2023-01-09T22:19:18.070Z,97832.13
2023-01-09T22:21:46.352Z,97840.34
2023-01-09T22:24:16.619Z,97845.78
2023-01-09T22:26:44.408Z,97855.59
2023-01-09T22:29:11.760Z,97856.59
2023-01-09T22:31:40.087Z,97861.47
2023-01-09T22:34:07.884Z,97874.03
2023-01-09T22:36:35.332Z,97876.94
2023-01-09T22:39:02.937Z,97878.56
2023-01-09T22:41:30.831Z,97886.13
2023-01-09T22:43:58.812Z,97881.84
2023-01-09T22:46:26.509Z,97892.06
2023-01-09T22:48:53.465Z,97898.50
2023-01-09T22:51:21.574Z,97882.56
2023-01-09T22:53:49.189Z,97884.56
2023-01-09T22:56:22.167Z,97900.94
2023-01-09T22:58:54.104Z,97909.59
2023-01-09T23:01:22.657Z,97909.09
2023-01-09T23:03:50.251Z,97904.53
2023-01-09T23:06:21.039Z,97920.31
2023-01-09T23:08:52.932Z,97923.28
2023-01-09T23:11:44.279Z,97922.59
2023-01-09T23:14:12.119Z,97925.03
2023-01-09T23:16:39.829Z,97939.72
2023-01-09T23:19:08.879Z,97940.97
2023-01-09T23:21:36.824Z,97947.56
2023-01-09T23:24:06.882Z,97941.47
2023-01-09T23:26:35.005Z,97952.91
2023-01-09T23:29:02.775Z,97961.84
2023-01-09T23:31:30.229Z,97958.59
2023-01-09T23:33:57.642Z,97964.19
2023-01-09T23:36:24.618Z,97968.56
2023-01-09T23:38:51.649Z,97969.75
2023-01-09T23:41:18.986Z,97974.56
2023-01-09T23:43:46.133Z,97974.09
2023-01-09T23:46:13.145Z,97971.16
2023-01-09T23:48:40.508Z,97974.00
2023-01-09T23:51:07.546Z,97975.44
2023-01-09T23:53:34.904Z,97966.09
2023-01-09T23:56:03.066Z,97985.00
2023-01-09T23:58:30.453Z,97981.06
